createdAt,value
2019-01-24T00:00:25.734Z,36.80
2019-01-24T00:03:05.386Z,35.37
2019-01-24T00:05:45.068Z,38.10
2019-01-24T00:08:24.328Z,38.27
2019-01-24T00:11:03.531Z,39.37
2019-01-24T00:13:44.123Z,38.97
2019-01-24T00:16:23.310Z,38.47
2019-01-24T00:19:02.575Z,37.60
2019-01-24T00:21:41.701Z,38.23
2019-01-24T00:24:20.879Z,39.13
2019-01-24T00:27:00.501Z,38.30
2019-01-24T00:29:39.665Z,35.63
2019-01-24T00:32:18.863Z,38.77
2019-01-24T00:34:58.134Z,39.67
2019-01-24T00:37:37.354Z,40.70
2019-01-24T00:40:22.355Z,38.83
2019-01-24T00:43:01.476Z,39.30
2019-01-24T00:45:41.079Z,38.63
2019-01-24T00:48:20.205Z,38.47
2019-01-24T00:50:59.328Z,39.70
2019-01-24T00:53:38.611Z,39.30
2019-01-24T00:56:17.900Z,39.53
2019-01-24T00:58:57.149Z,38.77
2019-01-24T01:01:36.266Z,40.33
2019-01-24T01:04:15.500Z,39.33
2019-01-24T01:06:54.574Z,39.87
2019-01-24T01:09:36.182Z,39.63
2019-01-24T01:12:15.390Z,39.27
2019-01-24T01:14:54.636Z,40.03
2019-01-24T01:17:33.780Z,39.10
2019-01-24T01:20:17.086Z,41.27
2019-01-24T01:22:57.420Z,40.00
2019-01-24T01:25:36.609Z,38.10
2019-01-24T01:28:15.698Z,37.30
2019-01-24T01:30:54.800Z,39.73
2019-01-24T01:33:34.109Z,35.63
2019-01-24T01:36:15.323Z,37.53
2019-01-24T01:38:54.509Z,37.87
2019-01-24T01:41:33.602Z,35.97
2019-01-24T01:44:12.855Z,37.67
2019-01-24T01:46:53.503Z,37.10
2019-01-24T01:49:32.600Z,38.70
2019-01-24T01:52:11.683Z,35.97
2019-01-24T01:54:51.214Z,36.73
2019-01-24T01:57:30.483Z,36.30
2019-01-24T02:00:14.877Z,36.83
2019-01-24T02:02:54.190Z,37.53
2019-01-24T02:05:36.107Z,36.10
2019-01-24T02:08:15.226Z,33.20
2019-01-24T02:10:54.409Z,37.07
2019-01-24T02:13:33.584Z,36.90
2019-01-24T02:16:12.771Z,36.07
2019-01-24T02:18:51.953Z,36.83
2019-01-24T02:21:31.814Z,38.07
2019-01-24T02:24:11.061Z,36.33
2019-01-24T02:26:52.744Z,35.10
2019-01-24T02:29:31.937Z,36.97
2019-01-24T02:32:14.527Z,34.40
2019-01-24T02:34:53.867Z,35.83
2019-01-24T02:37:35.103Z,36.23
2019-01-24T02:40:14.702Z,35.23
2019-01-24T02:42:53.917Z,34.40
2019-01-24T02:45:33.140Z,33.80
2019-01-24T02:48:12.290Z,33.67
2019-01-24T02:50:51.628Z,35.43
2019-01-24T02:53:30.726Z,34.13
2019-01-24T02:56:09.984Z,36.27
2019-01-24T02:58:49.111Z,35.10
2019-01-24T03:01:28.269Z,36.37
2019-01-24T03:04:07.573Z,35.83
2019-01-24T03:06:50.950Z,36.53
2019-01-24T03:09:30.389Z,36.63
2019-01-24T03:12:11.732Z,35.60
2019-01-24T03:14:50.898Z,34.87
2019-01-24T03:17:30.236Z,37.33
2019-01-24T03:20:10.018Z,34.80
2019-01-24T03:22:49.363Z,35.93
2019-01-24T03:25:28.531Z,34.33
2019-01-24T03:28:07.692Z,36.50
2019-01-24T03:30:46.904Z,36.83
2019-01-24T03:33:26.092Z,33.83
2019-01-24T03:36:05.428Z,35.77
2019-01-24T03:38:44.624Z,35.93
2019-01-24T03:41:23.930Z,36.93
2019-01-24T03:44:03.132Z,37.93
2019-01-24T03:46:42.332Z,35.63
2019-01-24T03:49:21.534Z,32.37
2019-01-24T03:52:00.848Z,35.67
2019-01-24T03:54:39.996Z,33.77
2019-01-24T03:57:19.192Z,35.40
2019-01-24T03:59:58.506Z,35.47
2019-01-24T04:02:37.787Z,34.73
2019-01-24T04:05:19.287Z,36.47
2019-01-24T04:07:58.557Z,33.23
2019-01-24T04:10:37.676Z,35.43
2019-01-24T04:13:16.770Z,38.33
2019-01-24T04:15:55.994Z,35.33
2019-01-24T04:18:35.204Z,36.30
2019-01-24T04:21:14.275Z,36.73
2019-01-24T04:23:53.560Z,35.23
2019-01-24T04:26:32.746Z,36.00
2019-01-24T04:29:11.814Z,33.77
2019-01-24T04:31:50.906Z,36.43
2019-01-24T04:34:30.260Z,35.53
2019-01-24T04:37:09.341Z,34.90
2019-01-24T04:39:50.711Z,33.80
2019-01-24T04:42:30.117Z,35.20
2019-01-24T04:45:13.370Z,35.13
2019-01-24T04:47:52.462Z,36.57
2019-01-24T04:50:31.566Z,34.60
2019-01-24T04:53:10.755Z,35.97
2019-01-24T04:55:50.062Z,34.50
2019-01-24T04:58:30.195Z,36.17
2019-01-24T05:01:12.706Z,36.10
2019-01-24T05:03:52.925Z,35.20
2019-01-24T05:06:32.000Z,37.67
2019-01-24T05:09:11.144Z,35.83
2019-01-24T05:11:50.246Z,36.63
2019-01-24T05:14:29.359Z,36.97
2019-01-24T05:17:08.474Z,38.40
2019-01-24T05:19:47.751Z,35.87
2019-01-24T05:22:26.831Z,36.07
2019-01-24T05:25:10.138Z,38.50
2019-01-24T05:27:49.255Z,36.30
2019-01-24T05:30:30.101Z,37.33
2019-01-24T05:33:09.181Z,37.37
2019-01-24T05:35:48.254Z,38.60
2019-01-24T05:38:27.388Z,46.67
2019-01-24T05:41:06.511Z,38.83
2019-01-24T05:43:45.633Z,40.97
2019-01-24T05:46:28.093Z,39.10
2019-01-24T05:49:07.167Z,36.23
2019-01-24T05:51:47.053Z,38.60
2019-01-24T05:54:26.416Z,37.17
2019-01-24T05:57:05.660Z,37.67
2019-01-24T05:59:44.751Z,36.43
2019-01-24T06:02:23.934Z,36.37
2019-01-24T06:05:03.085Z,38.50
2019-01-24T06:07:42.303Z,36.03
2019-01-24T06:10:21.498Z,37.77
2019-01-24T06:13:00.730Z,39.43
2019-01-24T06:15:39.968Z,39.03
2019-01-24T06:18:21.431Z,38.77
2019-01-24T06:21:00.592Z,37.60
2019-01-24T06:23:39.684Z,39.23
2019-01-24T06:26:18.781Z,38.03
2019-01-24T06:28:57.974Z,40.03
2019-01-24T06:31:37.184Z,39.43
2019-01-24T06:34:18.150Z,39.53
2019-01-24T06:36:57.213Z,39.57
2019-01-24T06:39:36.404Z,40.40
2019-01-24T06:42:15.712Z,40.23
2019-01-24T06:44:54.882Z,37.27
2019-01-24T06:47:34.068Z,39.27
2019-01-24T06:50:14.561Z,39.87
2019-01-24T06:52:53.733Z,38.90
2019-01-24T06:55:33.132Z,37.33
2019-01-24T06:58:12.451Z,39.73
2019-01-24T07:00:51.702Z,37.43
2019-01-24T07:03:30.831Z,39.63
2019-01-24T07:06:10.069Z,40.07
2019-01-24T07:08:50.401Z,36.50
2019-01-24T07:11:29.906Z,38.03
2019-01-24T07:14:10.641Z,39.93
2019-01-24T07:16:52.806Z,59.07
2019-01-24T07:19:31.902Z,56.83
2019-01-24T07:22:11.091Z,41.00
2019-01-24T07:24:50.276Z,44.00
2019-01-24T07:27:29.366Z,41.07
2019-01-24T07:30:11.755Z,39.43
2019-01-24T07:32:50.944Z,40.30
2019-01-24T07:35:33.537Z,37.83
2019-01-24T07:38:18.441Z,40.03
2019-01-24T07:41:01.213Z,41.33
2019-01-24T07:43:41.060Z,40.67
2019-01-24T07:46:20.221Z,40.17
2019-01-24T07:48:59.896Z,39.00
2019-01-24T07:51:40.726Z,40.93
2019-01-24T07:54:19.889Z,38.17
2019-01-24T07:57:00.711Z,36.73
2019-01-24T07:59:39.819Z,39.93
2019-01-24T08:02:19.124Z,41.43
2019-01-24T08:04:58.261Z,40.23
2019-01-24T08:07:37.411Z,41.10
2019-01-24T08:10:18.384Z,38.83
2019-01-24T08:12:57.513Z,40.10
2019-01-24T08:15:36.616Z,38.57
2019-01-24T08:18:15.673Z,39.10
2019-01-24T08:20:54.793Z,38.40
2019-01-24T08:23:34.094Z,38.83
2019-01-24T08:26:13.304Z,38.17
2019-01-24T08:28:52.396Z,38.83
2019-01-24T08:31:31.572Z,35.90
2019-01-24T08:34:10.693Z,33.90
2019-01-24T08:36:49.841Z,33.07
2019-01-24T08:39:29.033Z,31.20
2019-01-24T08:42:08.451Z,35.10
2019-01-24T08:44:47.562Z,31.23
2019-01-24T08:47:26.710Z,30.93
2019-01-24T08:50:10.342Z,31.87
2019-01-24T08:52:49.724Z,33.80
2019-01-24T08:55:41.331Z,33.40
2019-01-24T08:58:20.479Z,31.97
2019-01-24T09:00:59.650Z,30.57
2019-01-24T09:03:38.793Z,32.27
2019-01-24T09:06:22.487Z,30.97
2019-01-24T09:08:58.766Z,28.10
2019-01-24T09:11:38.103Z,28.73
2019-01-24T09:14:17.186Z,29.37
2019-01-24T09:16:56.242Z,27.83
2019-01-24T09:19:35.310Z,29.73
2019-01-24T09:22:14.371Z,28.40
2019-01-24T09:24:53.421Z,28.97
2019-01-24T09:27:32.628Z,28.60
2019-01-24T09:30:16.377Z,26.93
2019-01-24T09:32:55.488Z,25.77
2019-01-24T09:35:34.636Z,29.83
2019-01-24T09:38:13.720Z,26.13
2019-01-24T09:40:52.908Z,25.93
2019-01-24T09:43:32.019Z,24.83
2019-01-24T09:46:11.279Z,24.57
2019-01-24T09:48:51.761Z,24.87
2019-01-24T09:51:31.032Z,26.40
2019-01-24T09:54:10.214Z,28.90
2019-01-24T09:56:49.316Z,26.43
2019-01-24T09:59:28.529Z,24.37
2019-01-24T10:02:07.824Z,28.73
2019-01-24T10:04:46.976Z,25.00
2019-01-24T10:07:26.054Z,25.23
2019-01-24T10:10:09.351Z,25.23
2019-01-24T10:12:48.565Z,24.80
2019-01-24T10:15:27.979Z,24.47
2019-01-24T10:18:07.897Z,23.73
2019-01-24T10:20:47.523Z,22.47
2019-01-24T10:23:26.648Z,22.57
2019-01-24T10:26:05.908Z,22.43
2019-01-24T10:28:45.003Z,22.00
2019-01-24T10:31:24.062Z,21.57
2019-01-24T10:34:03.408Z,22.90
2019-01-24T10:36:43.290Z,21.27
2019-01-24T10:39:22.615Z,22.50
2019-01-24T10:42:01.820Z,19.30
2019-01-24T10:44:40.950Z,20.50
2019-01-24T10:47:19.992Z,20.70
2019-01-24T10:49:59.103Z,20.17
2019-01-24T10:52:38.342Z,20.53
2019-01-24T10:55:20.821Z,19.00
2019-01-24T10:58:02.787Z,19.27
2019-01-24T11:00:43.396Z,21.20
2019-01-24T11:03:22.636Z,21.27
2019-01-24T11:06:01.933Z,20.63
2019-01-24T11:08:41.065Z,20.50
2019-01-24T11:11:20.254Z,18.13
2019-01-24T11:13:59.406Z,19.43
2019-01-24T11:16:38.679Z,19.60
2019-01-24T11:19:17.904Z,18.13
2019-01-24T11:21:56.974Z,20.70
2019-01-24T11:24:36.011Z,27.20
2019-01-24T11:27:15.184Z,19.53
2019-01-24T11:29:54.287Z,20.33
2019-01-24T11:32:33.405Z,20.07
2019-01-24T11:35:14.949Z,20.20
2019-01-24T11:37:54.743Z,20.97
2019-01-24T11:40:33.935Z,21.93
2019-01-24T11:43:14.218Z,19.67
2019-01-24T11:45:53.465Z,19.00
2019-01-24T11:48:32.634Z,20.02
2019-01-24T11:51:11.733Z,21.77
2019-01-24T11:53:53.156Z,21.20
2019-01-24T11:56:31.613Z,22.00
2019-01-24T11:59:11.757Z,20.90
2019-01-24T12:01:50.915Z,19.33
2019-01-24T12:04:30.007Z,20.73
2019-01-24T12:07:11.290Z,22.07
2019-01-24T12:09:50.498Z,21.93
2019-01-24T12:12:29.635Z,25.03
2019-01-24T12:15:11.904Z,19.47
2019-01-24T12:17:52.248Z,20.03
2019-01-24T12:20:31.422Z,19.00
2019-01-24T12:23:10.538Z,20.77
2019-01-24T12:25:49.915Z,20.17
2019-01-24T12:28:29.051Z,19.70
2019-01-24T12:31:08.220Z,20.37
2019-01-24T12:33:47.430Z,19.67
2019-01-24T12:36:26.527Z,19.13
2019-01-24T12:39:10.486Z,20.07
2019-01-24T12:41:49.577Z,19.63
2019-01-24T12:44:28.659Z,20.07
2019-01-24T12:47:07.720Z,19.33
2019-01-24T12:49:58.585Z,20.07
2019-01-24T12:52:37.816Z,21.00
2019-01-24T12:55:17.583Z,20.63
2019-01-24T12:57:56.771Z,20.23
2019-01-24T13:00:41.179Z,18.73
2019-01-24T13:03:20.253Z,20.40
2019-01-24T13:05:59.388Z,20.70
2019-01-24T13:08:38.466Z,18.90
2019-01-24T13:11:17.828Z,20.60
2019-01-24T13:13:57.062Z,21.97
2019-01-24T13:16:36.246Z,19.87
2019-01-24T13:19:15.367Z,18.73
2019-01-24T13:21:54.424Z,18.23
2019-01-24T13:24:33.479Z,19.00
2019-01-24T13:27:12.560Z,18.20
2019-01-24T13:29:51.621Z,18.87
2019-01-24T13:32:30.771Z,18.57
2019-01-24T13:35:10.045Z,17.67
2019-01-24T13:37:49.380Z,19.30
2019-01-24T13:40:31.993Z,17.97
2019-01-24T13:43:11.042Z,18.60
2019-01-24T13:45:50.161Z,18.90
2019-01-24T13:48:29.249Z,17.73
2019-01-24T13:51:08.428Z,16.70
2019-01-24T13:53:47.475Z,18.03
2019-01-24T13:56:26.760Z,17.67
2019-01-24T13:59:06.061Z,19.53
2019-01-24T14:01:45.295Z,17.80
2019-01-24T14:04:37.366Z,19.47
2019-01-24T14:07:16.544Z,18.90
2019-01-24T14:09:55.709Z,19.63
2019-01-24T14:12:34.778Z,18.90
2019-01-24T14:15:15.698Z,19.47
2019-01-24T14:17:54.777Z,17.73
2019-01-24T14:20:34.011Z,18.60
2019-01-24T14:23:13.158Z,19.33
2019-01-24T14:25:52.375Z,20.03
2019-01-24T14:28:31.569Z,19.43
2019-01-24T14:31:11.770Z,18.63
2019-01-24T14:33:50.907Z,18.80
2019-01-24T14:36:31.711Z,19.40
2019-01-24T14:39:11.423Z,19.37
2019-01-24T14:41:50.592Z,20.87
2019-01-24T14:44:29.742Z,20.63
2019-01-24T14:47:11.413Z,19.17
2019-01-24T14:49:50.594Z,20.23
2019-01-24T14:52:31.122Z,19.17
2019-01-24T14:55:11.276Z,18.93
2019-01-24T14:57:50.954Z,19.50
2019-01-24T15:00:36.846Z,18.70
2019-01-24T15:03:16.571Z,20.37
2019-01-24T15:05:55.827Z,19.63
2019-01-24T15:08:35.115Z,22.20
2019-01-24T15:11:14.698Z,23.80
2019-01-24T15:13:54.429Z,21.73
2019-01-24T15:16:34.285Z,21.90
2019-01-24T15:19:13.593Z,27.03
2019-01-24T15:21:53.122Z,21.90
2019-01-24T15:24:32.461Z,20.43
2019-01-24T15:27:13.063Z,22.63
2019-01-24T15:29:52.361Z,22.57
2019-01-24T15:32:31.908Z,24.50
2019-01-24T15:35:11.335Z,22.73
2019-01-24T15:37:54.592Z,20.23
2019-01-24T15:40:35.360Z,21.43
2019-01-24T15:43:14.780Z,24.47
2019-01-24T15:45:54.237Z,22.73
2019-01-24T15:48:35.212Z,30.57
2019-01-24T15:51:26.301Z,24.10
2019-01-24T15:54:06.177Z,24.67
2019-01-24T15:56:45.653Z,26.17
2019-01-24T15:59:24.828Z,24.27
2019-01-24T16:02:03.945Z,29.83
2019-01-24T16:04:43.556Z,22.60
2019-01-24T16:07:22.892Z,27.10
2019-01-24T16:10:02.918Z,23.20
2019-01-24T16:12:42.188Z,26.93
2019-01-24T16:15:30.984Z,27.00
2019-01-24T16:18:11.819Z,41.57
2019-01-24T16:20:51.193Z,27.13
2019-01-24T16:23:31.201Z,28.60
2019-01-24T16:26:11.549Z,23.93
2019-01-24T16:28:50.774Z,26.37
2019-01-24T16:31:31.779Z,21.83
2019-01-24T16:34:11.574Z,30.00
2019-01-24T16:36:51.313Z,35.30
2019-01-24T16:39:31.170Z,27.50
2019-01-24T16:42:10.815Z,24.93
2019-01-24T16:44:51.257Z,21.20
2019-01-24T16:47:30.956Z,22.57
2019-01-24T16:50:11.651Z,57.47
2019-01-24T16:52:52.791Z,28.70
2019-01-24T16:55:35.178Z,39.93
2019-01-24T16:58:15.187Z,22.03
2019-01-24T17:01:04.603Z,21.63
2019-01-24T17:03:43.937Z,21.07
2019-01-24T17:06:24.267Z,20.93
2019-01-24T17:09:05.909Z,19.23
2019-01-24T17:11:45.315Z,18.90
2019-01-24T17:14:27.493Z,18.23
2019-01-24T17:17:06.890Z,19.53
2019-01-24T17:19:47.382Z,19.90
2019-01-24T17:22:29.286Z,22.17
2019-01-24T17:25:13.403Z,20.90
2019-01-24T17:27:54.598Z,24.47
2019-01-24T17:30:36.223Z,23.23
2019-01-24T17:33:19.850Z,22.27
2019-01-24T17:36:01.062Z,19.43
2019-01-24T17:38:40.635Z,19.83
2019-01-24T17:41:20.984Z,45.37
2019-01-24T17:44:03.327Z,21.23
2019-01-24T17:46:44.100Z,22.97
2019-01-24T17:49:28.049Z,25.93
2019-01-24T17:52:11.112Z,24.40
2019-01-24T17:54:52.494Z,25.33
2019-01-24T17:57:40.594Z,60.80
2019-01-24T18:00:29.654Z,34.97
2019-01-24T18:03:11.032Z,36.57
2019-01-24T18:05:50.601Z,29.27
2019-01-24T18:08:35.323Z,26.13
2019-01-24T18:11:15.285Z,22.00
2019-01-24T18:13:57.002Z,28.97
2019-01-24T18:16:37.296Z,21.13
2019-01-24T18:19:20.439Z,28.70
2019-01-24T18:22:00.817Z,25.50
2019-01-24T18:24:46.149Z,22.07
2019-01-24T18:27:28.551Z,26.63
2019-01-24T18:30:22.612Z,21.43
2019-01-24T18:33:07.322Z,25.53
2019-01-24T18:35:50.133Z,21.60
2019-01-24T18:38:38.611Z,23.60
2019-01-24T18:41:17.858Z,21.80
2019-01-24T18:43:58.963Z,23.63
2019-01-24T18:46:39.304Z,21.30
2019-01-24T18:49:20.960Z,21.63
2019-01-24T18:52:01.189Z,23.47
2019-01-24T18:54:43.096Z,21.57
2019-01-24T18:57:23.217Z,19.37
2019-01-24T19:00:04.465Z,19.67
2019-01-24T19:02:51.251Z,20.37
2019-01-24T19:05:34.122Z,23.53
2019-01-24T19:08:15.850Z,21.37
2019-01-24T19:10:56.636Z,19.57
2019-01-24T19:13:36.857Z,20.90
2019-01-24T19:16:16.861Z,21.87
2019-01-24T19:18:58.309Z,23.37
2019-01-24T19:21:39.590Z,22.10
2019-01-24T19:24:20.122Z,21.30
2019-01-24T19:27:00.669Z,24.37
2019-01-24T19:29:41.224Z,21.37
2019-01-24T19:32:21.532Z,22.03
2019-01-24T19:35:01.774Z,25.47
2019-01-24T19:37:42.154Z,23.73
2019-01-24T19:40:23.458Z,23.23
2019-01-24T19:43:04.887Z,23.20
2019-01-24T19:45:48.089Z,23.30
2019-01-24T19:48:31.209Z,27.07
2019-01-24T19:51:14.250Z,24.80
2019-01-24T19:53:56.493Z,23.97
2019-01-24T19:56:37.275Z,22.43
2019-01-24T19:59:17.362Z,23.77
2019-01-24T20:01:59.388Z,23.13
2019-01-24T20:04:41.453Z,22.73
2019-01-24T20:07:23.489Z,22.37
2019-01-24T20:10:05.547Z,23.07
2019-01-24T20:12:47.055Z,22.37
2019-01-24T20:15:30.519Z,25.03
2019-01-24T20:18:11.661Z,22.73
2019-01-24T20:20:51.767Z,23.13
2019-01-24T20:23:32.224Z,23.77
2019-01-24T20:26:12.847Z,23.10
2019-01-24T20:28:53.120Z,21.70
2019-01-24T20:31:33.300Z,23.17
2019-01-24T20:34:13.720Z,22.03
2019-01-24T20:36:54.102Z,23.57
2019-01-24T20:39:34.706Z,26.07
2019-01-24T20:42:15.041Z,25.37
2019-01-24T20:44:56.322Z,22.93
2019-01-24T20:47:36.981Z,23.67
2019-01-24T20:50:20.507Z,24.63
2019-01-24T20:53:12.753Z,23.87
2019-01-24T20:55:54.103Z,21.33
2019-01-24T20:58:33.931Z,23.20
2019-01-24T21:01:15.655Z,23.30
2019-01-24T21:03:59.286Z,23.63
2019-01-24T21:06:39.741Z,23.47
2019-01-24T21:09:20.674Z,23.63
2019-01-24T21:12:01.067Z,24.00
2019-01-24T21:14:44.081Z,22.77
2019-01-24T21:17:24.804Z,23.20
2019-01-24T21:20:06.303Z,23.00
2019-01-24T21:22:47.843Z,23.57
2019-01-24T21:25:30.445Z,23.37
2019-01-24T21:28:10.995Z,22.83
2019-01-24T21:31:01.203Z,23.07
2019-01-24T21:33:48.459Z,22.37
2019-01-24T21:36:28.205Z,22.97
2019-01-24T21:39:12.932Z,23.97
2019-01-24T21:41:54.564Z,24.30
2019-01-24T21:44:34.668Z,24.40
2019-01-24T21:47:14.279Z,24.20
2019-01-24T21:49:54.052Z,27.03
2019-01-24T21:52:35.077Z,23.17
2019-01-24T21:55:19.541Z,23.87
2019-01-24T21:57:59.408Z,24.30
2019-01-24T22:00:39.053Z,24.37
2019-01-24T22:03:18.521Z,25.00
2019-01-24T22:05:57.926Z,23.17
2019-01-24T22:08:37.359Z,22.43
2019-01-24T22:11:18.082Z,24.67
2019-01-24T22:13:57.379Z,25.37
2019-01-24T22:16:36.775Z,23.63
2019-01-24T22:19:16.038Z,23.97
2019-01-24T22:21:56.595Z,24.17
2019-01-24T22:24:35.702Z,23.97
2019-01-24T22:27:15.078Z,23.10
2019-01-24T22:29:54.316Z,22.57
2019-01-24T22:32:33.665Z,23.97
2019-01-24T22:35:13.155Z,24.23
2019-01-24T22:37:55.531Z,23.27
2019-01-24T22:40:34.665Z,23.23
2019-01-24T22:43:13.885Z,24.13
2019-01-24T22:45:53.284Z,24.17
2019-01-24T22:48:32.995Z,31.25
2019-01-24T22:51:12.262Z,26.53
2019-01-24T22:53:51.765Z,23.53
2019-01-24T22:56:35.425Z,23.87
2019-01-24T22:59:15.212Z,22.50
2019-01-24T23:02:05.768Z,22.70
2019-01-24T23:04:45.252Z,23.50
2019-01-24T23:07:24.681Z,23.83
2019-01-24T23:10:05.823Z,22.73
2019-01-24T23:12:45.040Z,23.77
2019-01-24T23:15:24.292Z,22.97
2019-01-24T23:18:05.508Z,22.23
2019-01-24T23:20:44.643Z,23.13
2019-01-24T23:23:25.080Z,24.13
2019-01-24T23:26:04.431Z,24.33
2019-01-24T23:28:43.644Z,24.33
2019-01-24T23:31:22.874Z,23.43
2019-01-24T23:34:02.233Z,25.10
2019-01-24T23:36:41.562Z,25.40
2019-01-24T23:39:22.259Z,26.50
2019-01-24T23:42:01.539Z,23.57
2019-01-24T23:44:40.665Z,25.43
2019-01-24T23:47:19.925Z,23.93
2019-01-24T23:49:59.239Z,24.73
2019-01-24T23:52:38.475Z,26.07
2019-01-24T23:55:17.746Z,25.03
2019-01-24T23:57:57.034Z,26.13
